Time;durP1;ratioP1;P1;durP2;ratioP2;P2;SDS_P1;SDS_P2;PMS_P1;PMS_P2;Temp;Humidity;BMP_temperature;BMP_pressure;BME280_temperature;BME280_humidity;BME280_pressure;Samples;Min_cycle;Max_cycle;Signal;HPM_P1;HPM_P2
2021/12/18 00:01:15;;;;;;;27.97;19.10;;;;;;;1.73;100.00;98224.03;5012250;28;103683;-55
2021/12/18 00:03:42;;;;;;;27.53;19.13;;;;;;;1.64;100.00;98232.84;5010194;28;101802;-57
2021/12/18 00:06:09;;;;;;;25.77;17.20;;;;;;;1.70;100.00;98240.09;5009112;28;105217;-55
2021/12/18 00:08:36;;;;;;;24.33;17.97;;;;;;;1.72;100.00;98243.38;5008604;28;105716;-57
2021/12/18 00:11:06;;;;;;;23.37;17.03;;;;;;;1.73;100.00;98258.13;5009035;28;101944;-57
2021/12/18 00:13:33;;;;;;;24.00;16.73;;;;;;;1.77;100.00;98262.94;5009020;28;105006;-57
2021/12/18 00:16:00;;;;;;;24.03;16.97;;;;;;;1.76;100.00;98256.03;5008079;28;105691;-57
2021/12/18 00:18:28;;;;;;;22.97;16.93;;;;;;;1.81;100.00;98266.91;5010438;28;101671;-57
2021/12/18 00:20:57;;;;;;;23.27;15.67;;;;;;;1.81;100.00;98268.72;5008885;28;105636;-57
2021/12/18 00:23:24;;;;;;;21.87;15.97;;;;;;;1.85;100.00;98265.63;5011910;28;105533;-57
2021/12/18 00:25:51;;;;;;;21.60;15.60;;;;;;;1.88;100.00;98259.25;5008579;28;105766;-56
2021/12/18 00:28:20;;;;;;;21.97;16.30;;;;;;;1.84;100.00;98247.41;5009707;28;102887;-57
2021/12/18 00:30:47;;;;;;;20.33;15.93;;;;;;;1.85;100.00;98255.13;5008199;28;101846;-57
2021/12/18 00:33:14;;;;;;;22.20;16.53;;;;;;;1.84;100.00;98253.50;5008612;28;105038;-57
2021/12/18 00:35:41;;;;;;;20.10;15.30;;;;;;;1.90;100.00;98257.31;5006985;28;105277;-57
2021/12/18 00:38:10;;;;;;;23.27;15.90;;;;;;;1.83;100.00;98257.09;5008399;28;101913;-57
2021/12/18 00:40:46;;;;;;;23.03;16.03;;;;;;;1.88;100.00;98249.59;5008750;28;105394;-58
2021/12/18 00:43:26;;;;;;;25.23;16.83;;;;;;;1.87;100.00;98247.13;5008142;28;106661;-55
2021/12/18 00:45:55;;;;;;;22.23;16.60;;;;;;;1.84;100.00;98257.91;5011724;28;101818;-57
2021/12/18 00:48:23;;;;;;;22.20;15.83;;;;;;;1.83;100.00;98264.97;5007976;28;105375;-58
2021/12/18 00:50:51;;;;;;;24.27;16.70;;;;;;;1.88;100.00;98264.50;5009860;28;101856;-56
2021/12/18 00:53:18;;;;;;;24.37;16.83;;;;;;;1.84;100.00;98261.38;5008440;28;105128;-57
2021/12/18 00:55:48;;;;;;;25.03;16.83;;;;;;;1.86;100.00;98271.72;5007746;28;104630;-57
2021/12/18 00:58:15;;;;;;;23.83;16.93;;;;;;;1.81;100.00;98268.72;5008304;28;101790;-57
2021/12/18 01:00:43;;;;;;;24.33;16.70;;;;;;;1.81;100.00;98271.34;5007992;28;105618;-57
2021/12/18 01:03:17;;;;;;;25.60;17.77;;;;;;;1.83;100.00;98279.88;5007798;28;104985;-58
2021/12/18 01:05:46;;;;;;;27.23;17.50;;;;;;;1.81;100.00;98289.69;5011655;28;102094;-58
2021/12/18 01:08:13;;;;;;;24.77;16.93;;;;;;;1.84;100.00;98298.09;5007682;28;104207;-57
2021/12/18 01:10:56;;;;;;;24.13;16.63;;;;;;;1.84;100.00;98292.84;5008158;28;101953;-56
2021/12/18 01:13:28;;;;;;;23.80;16.60;;;;;;;1.89;100.00;98295.84;5009690;28;102242;-56
2021/12/18 01:16:04;;;;;;;24.13;17.20;;;;;;;1.98;100.00;98302.00;5007464;28;105348;-54
2021/12/18 01:24:02;;;;;;;27.30;17.33;;;;;;;2.01;100.00;98301.66;5007494;28;105407;-58
2021/12/18 01:26:29;;;;;;;26.87;17.37;;;;;;;2.00;100.00;98300.03;5007769;28;102255;-56
2021/12/18 01:28:56;;;;;;;23.57;16.97;;;;;;;1.97;100.00;98287.22;5010804;28;105211;-56
2021/12/18 01:31:24;;;;;;;26.27;17.20;;;;;;;1.83;100.00;98290.38;5007431;28;101861;-57
2021/12/18 01:33:53;;;;;;;22.07;16.13;;;;;;;1.84;100.00;98279.72;5007971;28;105067;-57
2021/12/18 01:36:21;;;;;;;26.40;17.20;;;;;;;1.80;100.00;98275.75;5007265;28;104290;-57
2021/12/18 01:38:49;;;;;;;25.23;17.33;;;;;;;1.87;100.00;98278.59;5007797;28;102024;-57
2021/12/18 01:41:18;;;;;;;25.60;17.10;;;;;;;1.98;100.00;98281.00;5007763;28;105707;-58
2021/12/18 01:44:32;;;;;;;31.13;19.23;;;;;;;1.88;100.00;98283.72;5007087;28;105115;-57
2021/12/18 01:46:59;;;;;;;25.80;17.03;;;;;;;1.93;100.00;98278.00;5007033;28;102215;-57
2021/12/18 01:52:19;;;;;;;26.00;17.70;;;;;;;1.84;100.00;98273.66;5010580;28;103747;-56
2021/12/18 01:54:46;;;;;;;26.63;17.40;;;;;;;1.73;100.00;98266.84;5007622;28;104051;-56
2021/12/18 01:57:14;;;;;;;28.73;17.93;;;;;;;1.76;100.00;98270.97;5006868;28;104091;-56
2021/12/18 01:59:47;;;;;;;28.93;17.70;;;;;;;1.80;100.00;98273.13;5007343;28;101887;-56
2021/12/18 02:02:15;;;;;;;22.33;16.47;;;;;;;1.81;100.00;98272.16;5007438;28;105109;-57
2021/12/18 02:04:44;;;;;;;27.60;17.67;;;;;;;1.68;100.00;98276.13;5007008;28;105328;-56
2021/12/18 02:07:11;;;;;;;23.27;16.40;;;;;;;1.78;100.00;98282.97;5007340;28;102011;-58
2021/12/18 02:09:56;;;;;;;23.03;15.57;;;;;;;1.81;100.00;98285.25;5007322;28;104906;-58
2021/12/18 02:12:28;;;;;;;25.90;16.47;;;;;;;1.81;100.00;98271.34;5008287;28;102776;-57
2021/12/18 02:20:37;;;;;;;24.53;16.63;;;;;;;1.76;100.00;98269.16;5007057;28;102010;-55
2021/12/18 02:23:05;;;;;;;27.70;17.53;;;;;;;1.73;100.00;98263.38;5008913;28;102251;-57
2021/12/18 02:25:35;;;;;;;25.50;16.13;;;;;;;1.77;100.00;98257.72;5006424;28;105725;-56
2021/12/18 02:28:02;;;;;;;23.70;16.17;;;;;;;1.74;100.00;98263.25;5007149;28;101887;-57
2021/12/18 02:30:31;;;;;;;24.53;16.70;;;;;;;1.80;100.00;98261.84;5006864;28;104950;-57
2021/12/18 02:32:58;;;;;;;27.13;17.50;;;;;;;1.73;100.00;98255.50;5007886;28;102567;-56
2021/12/18 02:35:29;;;;;;;24.80;16.13;;;;;;;1.70;100.00;98251.38;5007053;28;101843;-57
2021/12/18 02:38:09;;;;;;;25.23;16.93;;;;;;;1.74;100.00;98246.66;5011612;28;102381;-58
2021/12/18 02:41:05;;;;;;;24.10;16.60;;;;;;;1.74;100.00;98246.66;5008570;28;102018;-57
2021/12/18 02:43:35;;;;;;;27.27;17.03;;;;;;;1.71;100.00;98252.22;5006723;28;103865;-57
2021/12/18 02:46:06;;;;;;;25.87;16.63;;;;;;;1.72;100.00;98232.88;5006674;28;105726;-57
2021/12/18 02:48:35;;;;;;;28.30;17.63;;;;;;;1.75;100.00;98235.22;5008542;28;101697;-54
2021/12/18 02:51:05;;;;;;;26.27;17.73;;;;;;;1.77;100.00;98235.88;5007022;28;103783;-58
2021/12/18 02:53:33;;;;;;;28.50;16.83;;;;;;;1.76;100.00;98234.25;5007398;28;102994;-57
2021/12/18 02:56:03;;;;;;;24.20;16.83;;;;;;;1.68;100.00;98224.50;5007224;28;101808;-58
2021/12/18 02:58:30;;;;;;;23.13;16.13;;;;;;;1.53;100.00;98223.38;5008445;28;102412;-57
2021/12/18 03:01:00;;;;;;;24.20;15.97;;;;;;;1.52;100.00;98226.97;5011997;28;104330;-57
2021/12/18 03:03:31;;;;;;;24.10;16.60;;;;;;;1.42;100.00;98220.97;5010028;28;105424;-57
2021/12/18 03:06:11;;;;;;;23.13;15.83;;;;;;;1.45;100.00;98228.56;5011024;28;102502;-58
2021/12/18 03:08:48;;;;;;;25.93;16.63;;;;;;;1.47;100.00;98217.91;5011684;28;101666;-58
2021/12/18 03:25:18;;;;;;;23.60;15.50;;;;;;;1.74;100.00;98242.25;4985622;28;102942;-56
2021/12/18 03:27:46;;;;;;;22.27;15.30;;;;;;;1.64;100.00;98245.94;5009466;28;106062;-55
2021/12/18 03:30:13;;;;;;;20.97;15.37;;;;;;;1.56;100.00;98244.06;5009634;28;101880;-58
2021/12/18 03:32:40;;;;;;;24.63;15.90;;;;;;;1.44;100.00;98233.94;4989847;28;103635;-57
2021/12/18 03:35:08;;;;;;;22.53;15.30;;;;;;;1.44;100.00;98234.78;4989359;28;105058;-57
2021/12/18 03:37:36;;;;;;;21.53;15.70;;;;;;;1.50;100.00;98231.56;4989708;28;101799;-55
2021/12/18 03:40:05;;;;;;;22.50;15.17;;;;;;;1.45;100.00;98230.34;4990671;28;102925;-55
2021/12/18 03:42:34;;;;;;;23.80;15.63;;;;;;;1.34;100.00;98231.41;4990334;28;104532;-57
2021/12/18 03:45:02;;;;;;;20.83;14.60;;;;;;;1.42;100.00;98231.47;4992940;28;102025;-57
2021/12/18 03:47:29;;;;;;;23.27;15.57;;;;;;;1.50;100.00;98228.09;4988890;28;105257;-57
2021/12/18 03:49:56;;;;;;;24.00;16.27;;;;;;;1.45;100.00;98231.19;4990982;28;101902;-56
2021/12/18 03:52:23;;;;;;;23.73;15.73;;;;;;;1.32;100.00;98222.84;4990890;28;102315;-56
2021/12/18 03:54:51;;;;;;;22.37;15.10;;;;;;;1.38;100.00;98222.25;4988599;28;106053;-57
2021/12/18 03:57:18;;;;;;;21.80;15.77;;;;;;;1.28;100.00;98220.66;4989026;28;101763;-57
2021/12/18 03:59:47;;;;;;;22.53;15.57;;;;;;;1.30;100.00;98209.06;4990502;28;104031;-58
2021/12/18 04:02:14;;;;;;;20.70;15.10;;;;;;;1.19;100.00;98205.81;4990181;28;102499;-55
2021/12/18 04:04:41;;;;;;;20.97;15.00;;;;;;;1.21;100.00;98202.09;4989042;28;101821;-57
2021/12/18 04:07:08;;;;;;;22.07;16.20;;;;;;;1.17;100.00;98211.22;4992165;28;105514;-57
2021/12/18 04:09:36;;;;;;;21.13;14.37;;;;;;;1.14;100.00;98200.19;4990551;28;101776;-57
2021/12/18 04:12:04;;;;;;;22.03;14.77;;;;;;;1.15;100.00;98210.53;4988891;28;105652;-56
2021/12/18 04:14:31;;;;;;;22.67;15.23;;;;;;;1.14;100.00;98211.50;4988674;28;104167;-57
2021/12/18 04:17:01;;;;;;;21.33;15.03;;;;;;;1.13;100.00;98209.03;4990348;28;101701;-57
2021/12/18 04:19:28;;;;;;;22.70;15.10;;;;;;;1.04;100.00;98215.19;4989257;28;105037;-58
2021/12/18 04:21:55;;;;;;;21.73;15.10;;;;;;;1.16;100.00;98220.03;4988457;28;105438;-56
2021/12/18 04:24:22;;;;;;;22.67;15.73;;;;;;;1.07;100.00;98220.94;4988801;28;102004;-57
2021/12/18 04:26:49;;;;;;;22.63;15.23;;;;;;;1.12;100.00;98226.56;4988874;28;105812;-57
2021/12/18 04:29:16;;;;;;;21.43;15.00;;;;;;;1.10;100.00;98233.72;4991971;28;105232;-56
2021/12/18 04:31:43;;;;;;;19.77;14.40;;;;;;;1.04;100.00;98230.91;5000229;28;105684;-57
2021/12/18 04:34:11;;;;;;;22.60;15.27;;;;;;;1.14;100.00;98240.34;5008148;28;105057;-57
2021/12/18 04:36:38;;;;;;;20.60;15.07;;;;;;;1.20;100.00;98238.94;5008637;28;101849;-57
2021/12/18 04:39:06;;;;;;;23.50;15.10;;;;;;;1.33;100.00;98247.25;5008785;28;104842;-56
2021/12/18 04:41:37;;;;;;;21.40;14.43;;;;;;;1.35;100.00;98245.31;5008057;28;105963;-57
2021/12/18 04:44:05;;;;;;;20.80;15.37;;;;;;;1.17;100.00;98247.06;5008602;28;101789;-56
2021/12/18 04:46:33;;;;;;;21.37;14.87;;;;;;;1.16;100.00;98242.81;5008400;28;105621;-57
2021/12/18 04:49:00;;;;;;;21.43;15.23;;;;;;;1.24;100.00;98253.38;5008149;28;103872;-57
2021/12/18 04:51:29;;;;;;;22.67;15.70;;;;;;;1.10;100.00;98259.94;5011873;28;101896;-57
2021/12/18 04:53:56;;;;;;;21.17;15.10;;;;;;;1.00;100.00;98253.91;5007673;28;105712;-57
2021/12/18 04:56:23;;;;;;;22.47;15.60;;;;;;;1.07;100.00;98243.69;5008352;28;102126;-55
2021/12/18 04:58:50;;;;;;;19.83;14.07;;;;;;;1.18;100.00;98249.56;5008155;28;105270;-57
2021/12/18 05:01:18;;;;;;;21.50;14.33;;;;;;;1.23;100.00;98251.72;5007895;28;105698;-57
2021/12/18 05:03:45;;;;;;;22.13;15.07;;;;;;;1.22;100.00;98253.50;5008388;28;102211;-57
2021/12/18 05:06:12;;;;;;;20.90;14.83;;;;;;;1.16;100.00;98253.28;5008257;28;105597;-57
2021/12/18 05:08:41;;;;;;;21.67;15.53;;;;;;;1.04;100.00;98257.09;5007538;28;105006;-57
2021/12/18 05:11:08;;;;;;;19.40;14.47;;;;;;;1.06;100.00;98255.13;5008067;28;101863;-55
2021/12/18 05:13:36;;;;;;;20.30;13.97;;;;;;;0.97;100.00;98250.75;5012477;28;102381;-57
2021/12/18 05:16:02;;;;;;;21.00;15.03;;;;;;;1.00;100.00;98247.88;5008149;28;102421;-56
2021/12/18 05:18:30;;;;;;;22.10;15.80;;;;;;;1.10;100.00;98246.03;5008056;28;106083;-57
2021/12/18 05:20:57;;;;;;;21.97;15.87;;;;;;;1.09;100.00;98250.44;5007291;28;103952;-57
2021/12/18 05:23:24;;;;;;;21.17;15.03;;;;;;;1.06;100.00;98239.41;5007211;28;102124;-57
2021/12/18 05:25:53;;;;;;;20.80;15.63;;;;;;;1.09;100.00;98244.38;5007968;28;105505;-57
2021/12/18 05:28:20;;;;;;;21.70;15.13;;;;;;;1.07;100.00;98241.06;5007319;28;105354;-56
2021/12/18 05:30:47;;;;;;;22.50;15.30;;;;;;;0.96;100.00;98249.13;5007302;28;101952;-57
2021/12/18 05:33:14;;;;;;;21.70;15.00;;;;;;;0.95;100.00;98248.31;5010772;28;105587;-57
2021/12/18 05:35:42;;;;;;;22.20;15.30;;;;;;;1.02;100.00;98251.16;5007774;28;101975;-57
2021/12/18 05:38:08;;;;;;;21.27;16.00;;;;;;;1.09;100.00;98254.84;5007863;28;103939;-56
2021/12/18 05:40:37;;;;;;;21.13;15.40;;;;;;;1.12;100.00;98249.31;5007304;28;104477;-57
2021/12/18 05:43:06;;;;;;;23.00;15.63;;;;;;;1.15;100.00;98249.84;5007485;28;101953;-58
2021/12/18 05:45:34;;;;;;;24.77;16.70;;;;;;;1.08;100.00;98255.81;5009024;28;102522;-58
2021/12/18 05:48:01;;;;;;;24.53;16.07;;;;;;;1.01;100.00;98250.34;5007201;28;104226;-56
2021/12/18 05:50:29;;;;;;;21.07;15.07;;;;;;;1.13;100.00;98256.19;5007658;28;102086;-57
2021/12/18 05:52:58;;;;;;;22.07;15.53;;;;;;;1.27;100.00;98253.09;5007229;28;105474;-57
2021/12/18 05:55:26;;;;;;;20.03;14.27;;;;;;;1.18;100.00;98253.97;5010133;28;105007;-58
2021/12/18 05:57:53;;;;;;;21.13;15.37;;;;;;;1.20;100.00;98254.66;5007637;28;103512;-57
2021/12/18 06:00:21;;;;;;;19.30;13.93;;;;;;;1.32;100.00;98266.59;5007082;28;104043;-57
2021/12/18 06:02:49;;;;;;;21.17;14.77;;;;;;;1.33;100.00;98268.22;5007455;28;101915;-57
2021/12/18 06:05:17;;;;;;;20.67;14.73;;;;;;;1.32;100.00;98269.19;5008584;28;102421;-57
2021/12/18 06:08:02;;;;;;;22.77;15.43;;;;;;;1.30;100.00;98264.09;5007003;28;105760;-57
2021/12/18 06:10:33;;;;;;;19.60;13.93;;;;;;;1.27;100.00;98260.97;5007484;28;101819;-56
2021/12/18 06:13:02;;;;;;;21.53;15.30;;;;;;;1.28;100.00;98252.13;5007246;28;105887;-57
2021/12/18 06:15:31;;;;;;;22.27;15.40;;;;;;;1.21;100.00;98254.50;5006724;28;105685;-57
2021/12/18 06:17:58;;;;;;;21.97;14.10;;;;;;;1.24;100.00;98261.22;5010729;28;101929;-57
2021/12/18 06:20:26;;;;;;;20.30;14.63;;;;;;;1.19;100.00;98260.84;5006559;28;105752;-57
2021/12/18 06:22:53;;;;;;;22.07;15.43;;;;;;;1.08;100.00;98266.28;5007318;28;101769;-57
2021/12/18 06:25:21;;;;;;;22.37;15.50;;;;;;;1.18;100.00;98264.44;5007212;28;104887;-56
2021/12/18 06:27:48;;;;;;;21.20;15.17;;;;;;;1.19;100.00;98261.69;5006816;28;105347;-57
2021/12/18 06:30:17;;;;;;;20.37;14.60;;;;;;;1.21;100.00;98264.16;5008156;28;101785;-57
2021/12/18 06:32:46;;;;;;;22.07;15.30;;;;;;;1.19;100.00;98264.31;5006950;28;105651;-58
2021/12/18 06:35:14;;;;;;;20.80;15.33;;;;;;;1.24;100.00;98259.44;5009736;28;105819;-57
2021/12/18 06:37:41;;;;;;;20.33;14.57;;;;;;;1.16;100.00;98261.16;5009923;28;101823;-58
2021/12/18 06:40:09;;;;;;;22.17;15.20;;;;;;;1.14;100.00;98257.84;5012065;28;104157;-58
2021/12/18 06:42:37;;;;;;;24.13;15.67;;;;;;;1.14;100.00;98261.28;5007447;28;102042;-57
2021/12/18 06:45:12;;;;;;;20.60;15.53;;;;;;;1.27;100.00;98253.09;5010254;28;105203;-56
2021/12/18 06:47:40;;;;;;;21.23;15.13;;;;;;;1.30;100.00;98263.25;5004949;28;104244;-56
2021/12/18 06:50:09;;;;;;;22.20;14.93;;;;;;;1.36;100.00;98265.28;5006953;28;101896;-57
2021/12/18 06:52:36;;;;;;;22.03;15.93;;;;;;;1.35;100.00;98261.03;4990818;28;105078;-58
2021/12/18 06:55:06;;;;;;;20.97;15.77;;;;;;;1.32;100.00;98267.38;4990036;28;105298;-57
2021/12/18 06:57:40;;;;;;;21.03;15.03;;;;;;;1.19;100.00;98263.47;5024111;28;101749;-57
2021/12/18 07:00:10;;;;;;;20.73;15.67;;;;;;;1.14;100.00;98258.69;4990443;28;105599;-57
2021/12/18 07:02:38;;;;;;;21.63;14.73;;;;;;;1.24;100.00;98253.38;4993493;28;105165;-57
2021/12/18 07:05:06;;;;;;;19.90;14.70;;;;;;;1.07;100.00;98252.38;4990494;28;105531;-57
2021/12/18 07:07:34;;;;;;;23.37;15.23;;;;;;;1.03;100.00;98250.19;4994455;28;102746;-57
2021/12/18 07:10:01;;;;;;;21.80;15.27;;;;;;;1.10;100.00;98248.66;4990306;28;101839;-58
2021/12/18 07:12:28;;;;;;;22.97;15.37;;;;;;;1.19;100.00;98256.44;4990223;28;105209;-55
2021/12/18 07:14:57;;;;;;;24.40;15.83;;;;;;;1.12;100.00;98254.56;5001921;28;105500;-57
2021/12/18 07:17:25;;;;;;;22.67;15.77;;;;;;;0.98;100.00;98253.25;5008735;28;101786;-57
2021/12/18 07:19:52;;;;;;;22.27;15.43;;;;;;;1.04;100.00;98257.09;5004265;28;104145;-57
2021/12/18 07:22:19;;;;;;;20.43;15.13;;;;;;;1.19;100.00;98260.84;5009139;28;105821;-58
2021/12/18 07:24:50;;;;;;;21.83;15.10;;;;;;;1.19;100.00;98266.94;5013180;28;102157;-58
2021/12/18 07:27:23;;;;;;;20.33;14.50;;;;;;;1.23;100.00;98263.03;5008905;28;105702;-57
2021/12/18 07:29:50;;;;;;;19.87;15.23;;;;;;;0.99;100.00;98264.56;5009338;28;101971;-57
2021/12/18 07:32:18;;;;;;;21.67;14.80;;;;;;;0.97;100.00;98266.47;5009083;28;105005;-56
2021/12/18 07:34:56;;;;;;;21.93;14.60;;;;;;;0.90;100.00;98261.00;5009478;28;104002;-57
2021/12/18 07:37:24;;;;;;;21.97;14.63;;;;;;;0.90;100.00;98270.66;5011072;28;102417;-57
2021/12/18 07:39:53;;;;;;;22.00;14.43;;;;;;;0.98;100.00;98278.59;5006361;28;104740;-57
2021/12/18 07:42:20;;;;;;;21.67;15.17;;;;;;;0.94;100.00;98257.13;4989354;28;104004;-55
2021/12/18 07:44:49;;;;;;;20.90;14.23;;;;;;;1.09;100.00;98266.16;5011776;28;101834;-57
2021/12/18 07:47:16;;;;;;;22.80;15.80;;;;;;;1.12;100.00;98254.56;5008917;28;105345;-57
2021/12/18 07:49:43;;;;;;;20.87;14.37;;;;;;;0.99;100.00;98259.31;5009653;28;102037;-58
2021/12/18 07:52:12;;;;;;;20.03;13.93;;;;;;;1.12;100.00;98263.25;5009647;28;105197;-57
2021/12/18 07:54:39;;;;;;;20.93;14.53;;;;;;;1.01;100.00;98255.59;5008955;28;105673;-57
2021/12/18 07:57:21;;;;;;;23.57;15.97;;;;;;;1.20;100.00;98254.66;5009366;28;101801;-57
2021/12/18 07:59:51;;;;;;;21.70;14.77;;;;;;;1.33;100.00;98247.25;5009351;28;105518;-57
2021/12/18 08:02:18;;;;;;;23.87;16.23;;;;;;;1.30;100.00;98258.03;5008800;28;105450;-57
2021/12/18 08:04:53;;;;;;;22.93;15.93;;;;;;;1.36;100.00;98249.56;5009474;28;101888;-57
2021/12/18 08:07:19;;;;;;;24.37;16.87;;;;;;;1.32;100.00;98256.91;5012534;28;104746;-57
2021/12/18 08:09:47;;;;;;;22.67;16.03;;;;;;;1.38;100.00;98260.75;5005425;28;101855;-57
2021/12/18 08:12:14;;;;;;;24.20;15.60;;;;;;;1.50;100.00;98259.56;5007807;28;105628;-56
2021/12/18 08:15:01;;;;;;;21.33;14.87;;;;;;;1.58;100.00;98262.28;5008741;28;106125;-57
2021/12/18 08:17:29;;;;;;;23.13;15.17;;;;;;;1.68;100.00;98260.38;5008960;28;101802;-57
2021/12/18 08:19:56;;;;;;;20.50;14.63;;;;;;;1.72;100.00;98266.97;5009142;28;105539;-56
2021/12/18 08:22:23;;;;;;;22.47;15.30;;;;;;;1.72;100.00;98259.13;5010068;28;103319;-57
2021/12/18 08:25:27;;;;;;;24.80;16.43;;;;;;;1.84;100.00;98252.66;5009047;28;101888;-57
2021/12/18 08:27:58;;;;;;;21.97;14.13;;;;;;;1.94;100.00;98261.28;5009084;28;104721;-54
2021/12/18 08:30:28;;;;;;;21.43;14.50;;;;;;;1.67;100.00;98250.88;5011321;28;105316;-58
2021/12/18 08:32:55;;;;;;;20.07;14.50;;;;;;;1.46;100.00;98260.81;5009043;28;105364;-57
2021/12/18 08:35:25;;;;;;;21.03;14.60;;;;;;;1.45;100.00;98256.56;5009918;28;102601;-55
2021/12/18 08:37:52;;;;;;;22.23;15.47;;;;;;;1.43;100.00;98255.88;5010551;28;101735;-57
2021/12/18 08:40:20;;;;;;;20.47;14.33;;;;;;;1.52;100.00;98249.72;5010033;28;105175;-57
2021/12/18 08:42:47;;;;;;;21.90;15.13;;;;;;;1.43;100.00;98248.81;5007972;28;105739;-57
2021/12/18 08:45:16;;;;;;;20.77;13.87;;;;;;;1.39;100.00;98251.91;5008722;28;102387;-57
2021/12/18 08:47:45;;;;;;;20.70;14.57;;;;;;;1.50;100.00;98243.81;5008886;28;102376;-57
2021/12/18 08:50:16;;;;;;;20.30;14.10;;;;;;;1.53;100.00;98249.59;5006955;28;103999;-57
2021/12/18 08:52:43;;;;;;;23.10;15.33;;;;;;;1.58;100.00;98249.16;5011454;28;102299;-56
2021/12/18 08:55:11;;;;;;;19.97;14.23;;;;;;;1.53;100.00;98256.66;5007521;28;105084;-56
2021/12/18 08:57:38;;;;;;;20.57;14.80;;;;;;;1.62;100.00;98253.13;5007097;28;101817;-57
2021/12/18 09:00:09;;;;;;;22.10;15.77;;;;;;;1.70;100.00;98240.09;5008034;28;104809;-56
2021/12/18 09:02:36;;;;;;;22.07;14.63;;;;;;;1.64;100.00;98240.69;5007863;28;105120;-55
2021/12/18 09:05:06;;;;;;;21.20;14.67;;;;;;;1.53;100.00;98244.34;5008151;28;102133;-57
2021/12/18 09:07:33;;;;;;;21.17;14.57;;;;;;;1.65;100.00;98245.78;5008064;28;105732;-59
2021/12/18 09:10:00;;;;;;;22.07;14.50;;;;;;;1.63;100.00;98244.28;5007623;28;105264;-59
2021/12/18 09:12:27;;;;;;;21.97;14.17;;;;;;;1.78;100.00;98245.41;5009436;28;101894;-56
2021/12/18 09:14:54;;;;;;;24.87;17.10;;;;;;;1.86;100.00;98242.88;5010935;28;105556;-56
2021/12/18 09:17:21;;;;;;;23.27;15.97;;;;;;;1.83;100.00;98240.53;5007929;28;102236;-56
2021/12/18 09:19:48;;;;;;;25.00;15.57;;;;;;;1.82;100.00;98239.72;5008128;28;105106;-56
2021/12/18 09:22:17;;;;;;;24.93;15.07;;;;;;;1.82;100.00;98231.84;5007492;28;105192;-55
2021/12/18 09:24:44;;;;;;;23.20;15.10;;;;;;;2.03;100.00;98227.06;5007826;28;101819;-58
2021/12/18 09:27:11;;;;;;;22.80;15.20;;;;;;;2.16;100.00;98232.78;5007056;28;103889;-59
2021/12/18 09:29:39;;;;;;;23.40;14.13;;;;;;;2.21;100.00;98237.56;5007217;28;105026;-59
2021/12/18 09:32:06;;;;;;;24.10;15.67;;;;;;;2.19;100.00;98234.25;5007358;28;102011;-59
2021/12/18 09:34:34;;;;;;;23.70;15.83;;;;;;;2.17;100.00;98238.81;5007921;28;104019;-59
2021/12/18 09:37:01;;;;;;;22.97;15.80;;;;;;;2.41;100.00;98237.19;5010474;28;101814;-59
2021/12/18 09:39:31;;;;;;;22.77;16.03;;;;;;;2.41;100.00;98239.81;5008795;28;102941;-57
2021/12/18 09:41:58;;;;;;;26.97;16.87;;;;;;;1.92;100.00;98242.25;5007048;28;105494;-59
2021/12/18 09:44:27;;;;;;;26.50;16.53;;;;;;;1.74;100.00;98238.78;5007609;28;102315;-59
2021/12/18 09:46:54;;;;;;;25.90;15.53;;;;;;;1.93;100.00;98241.28;5007633;28;105617;-59
2021/12/18 09:49:22;;;;;;;26.37;16.57;;;;;;;1.58;100.00;98236.06;5006965;28;105260;-59
2021/12/18 09:51:50;;;;;;;27.10;16.30;;;;;;;1.72;100.00;98236.34;5007645;28;101816;-59
2021/12/18 09:54:18;;;;;;;27.60;16.57;;;;;;;1.87;100.00;98231.38;5009056;28;103246;-57
2021/12/18 09:56:47;;;;;;;27.70;17.13;;;;;;;2.08;100.00;98230.06;5011418;28;103091;-59
2021/12/18 09:59:14;;;;;;;27.07;15.70;;;;;;;2.19;100.00;98226.38;5007256;28;103547;-59
2021/12/18 10:01:41;;;;;;;24.10;16.03;;;;;;;2.16;100.00;98227.53;5006226;28;104990;-58
2021/12/18 10:04:29;;;;;;;25.63;16.30;;;;;;;2.32;100.00;98224.16;5005930;28;101964;-57
2021/12/18 10:06:58;;;;;;;27.23;16.77;;;;;;;2.28;100.00;98225.44;5024355;27;105515;-58
2021/12/18 10:09:36;;;;;;;27.70;16.73;;;;;;;2.23;100.00;98222.47;5008556;28;105682;-59
2021/12/18 10:12:15;;;;;;;26.50;15.80;;;;;;;2.26;100.00;98225.63;5010396;28;101831;-59
2021/12/18 10:14:44;;;;;;;25.43;16.00;;;;;;;2.28;100.00;98220.19;5010271;28;103720;-59
2021/12/18 10:17:21;;;;;;;23.47;15.00;;;;;;;2.06;100.00;98216.28;5011542;28;102613;-59
2021/12/18 10:19:51;;;;;;;25.37;15.93;;;;;;;2.11;100.00;98213.19;5015113;28;101817;-59
2021/12/18 10:22:18;;;;;;;25.57;15.50;;;;;;;2.21;100.00;98206.88;5006866;28;105670;-59
2021/12/18 10:24:47;;;;;;;24.23;16.40;;;;;;;2.30;100.00;98213.00;5001106;28;101835;-59
2021/12/18 10:27:19;;;;;;;26.17;15.97;;;;;;;2.44;100.00;98209.78;5007853;28;105577;-59
2021/12/18 10:29:48;;;;;;;23.67;15.23;;;;;;;2.42;100.00;98201.25;5011343;28;102521;-59
2021/12/18 10:32:18;;;;;;;24.97;16.00;;;;;;;2.61;100.00;98203.66;5010541;28;101892;-59
2021/12/18 10:34:52;;;;;;;23.83;15.20;;;;;;;2.74;100.00;98191.72;5011582;28;102481;-59
2021/12/18 10:37:21;;;;;;;23.33;14.93;;;;;;;2.73;100.00;98186.66;5011643;28;102792;-59
2021/12/18 10:40:01;;;;;;;24.73;15.30;;;;;;;2.90;100.00;98181.28;5010151;28;101982;-59
2021/12/18 10:42:33;;;;;;;25.83;16.30;;;;;;;3.16;100.00;98176.78;5015055;28;102422;-59
2021/12/18 10:45:18;;;;;;;31.50;20.70;;;;;;;2.87;100.00;98183.41;5009807;28;102210;-59
2021/12/18 10:47:58;;;;;;;23.83;15.30;;;;;;;2.76;100.00;98174.03;5010499;28;105615;-59
2021/12/18 10:50:31;;;;;;;23.37;15.23;;;;;;;2.90;100.00;98175.22;5009695;28;105025;-59
2021/12/18 10:53:00;;;;;;;28.67;16.77;;;;;;;2.76;100.00;98174.03;5008969;28;101794;-59
2021/12/18 10:55:34;;;;;;;25.20;16.10;;;;;;;2.84;100.00;98171.41;5005325;28;104943;-59
2021/12/18 10:58:05;;;;;;;26.07;17.37;;;;;;;2.83;100.00;98171.56;5009824;28;105132;-59
2021/12/18 11:00:39;;;;;;;31.57;20.80;;;;;;;2.97;100.00;98166.56;5010064;28;101862;-59
2021/12/18 11:03:18;;;;;;;28.93;18.10;;;;;;;3.08;100.00;98162.78;5010192;28;105514;-59
2021/12/18 11:06:09;;;;;;;25.27;16.37;;;;;;;2.91;100.00;98158.47;5013038;28;105732;-59
2021/12/18 11:08:51;;;;;;;28.73;17.30;;;;;;;3.04;100.00;98158.81;5010151;28;105064;-59
2021/12/18 11:14:07;;;;;;;25.83;15.73;;;;;;;2.86;100.00;98158.97;5009879;28;101869;-59
2021/12/18 11:16:35;;;;;;;25.90;15.90;;;;;;;2.78;100.00;98158.13;5010071;28;105025;-59
2021/12/18 11:19:03;;;;;;;23.63;15.63;;;;;;;2.76;100.00;98147.75;5009437;28;105446;-59
2021/12/18 11:21:32;;;;;;;24.57;15.20;;;;;;;2.47;100.00;98146.47;5008890;28;101927;-59
2021/12/18 11:24:04;;;;;;;26.33;16.17;;;;;;;2.51;100.00;98143.38;5009645;28;105118;-59
2021/12/18 11:26:35;;;;;;;23.00;14.63;;;;;;;2.53;100.00;98141.44;5009183;28;105785;-59
2021/12/18 11:29:06;;;;;;;23.73;15.43;;;;;;;2.67;100.00;98132.13;5013385;28;101865;-59
2021/12/18 11:31:33;;;;;;;25.17;16.17;;;;;;;2.81;100.00;98140.22;5010308;28;103044;-59
2021/12/18 11:34:02;;;;;;;26.10;15.87;;;;;;;2.98;100.00;98126.13;5011185;28;101812;-59
2021/12/18 11:36:30;;;;;;;26.87;15.80;;;;;;;2.95;100.00;98129.06;5009520;28;104754;-59
2021/12/18 11:38:57;;;;;;;24.03;15.13;;;;;;;3.14;100.00;98130.59;5008967;28;105417;-59
2021/12/18 11:41:25;;;;;;;25.20;16.97;;;;;;;3.07;100.00;98133.03;5009797;28;102025;-59
2021/12/18 11:43:52;;;;;;;28.30;17.23;;;;;;;2.23;100.00;98128.81;5011176;28;102362;-59
2021/12/18 11:46:33;;;;;;;28.73;17.57;;;;;;;2.43;100.00;98129.38;5008893;28;105584;-59
2021/12/18 11:49:02;;;;;;;29.40;17.50;;;;;;;2.70;100.00;98127.38;5012876;28;102154;-59
2021/12/18 11:51:31;;;;;;;28.37;17.77;;;;;;;2.86;100.00;98129.22;5008762;28;105643;-59